Kelley, Iowa
Current Conditions -  °F | °C
As of 5:53 AM on Friday 24 Oct 2014 (Local Time) from KAMW Reporting Station
Moderate Fog Moderate Fog  
Wind Chill: 49°   Ceiling: 200
Heat Index: 49°   Visibility: 0.25mi
Dew Point: 48°   Wind: 3mph
Humidity: 97%   Direction: 160°SSE
Pressure: 29.98"   Gusts: NA
Location:  41.95°N, 93.67°W
Report Text: KAMW 241053Z AUTO 16003KT 1/4SM FG VV002 09/09 A2998 RMK AO2 SLP150 T00940089
Loading
Personal Weather Stations






























Interactive Weather Map
Tropical Storm Tracking
New forecast layout! Learn more

10-Day Weather Forecast

Advertisements
Track Severe Weather on mobile